TimeCST,TemperatureF,Dew PointF,Humidity,Sea Level PressureIn,VisibilityMPH,Wind Direction,Wind SpeedMPH,Gust SpeedMPH,PrecipitationIn,Events,Conditions,WindDirDegrees,DateUTC
12:15 AM,-7.6,-14.8,71,30.42,10.0,West,4.6,-,N/A,,Clear,270,2014-01-03 06:15:00
12:35 AM,-7.6,-13.0,77,30.42,10.0,West,4.6,-,N/A,,Clear,260,2014-01-03 06:35:00
12:55 AM,-7.6,-14.8,71,30.41,10.0,WSW,3.5,-,N/A,,Clear,250,2014-01-03 06:55:00
1:15 AM,-7.6,-14.8,71,30.41,10.0,Calm,Calm,-,N/A,,Clear,0,2014-01-03 07:15:00
1:35 AM,-9.4,-14.8,77,30.42,10.0,West,6.9,-,N/A,,Clear,260,2014-01-03 07:35:00
1:55 AM,-9.4,-14.8,77,30.41,10.0,SW,5.8,-,N/A,,Clear,230,2014-01-03 07:55:00
2:15 AM,-9.4,-14.8,77,30.40,10.0,SW,5.8,-,N/A,,Clear,220,2014-01-03 08:15:00
2:35 AM,-7.6,-14.8,71,30.39,10.0,SSW,3.5,-,N/A,,Clear,210,2014-01-03 08:35:00
2:55 AM,-5.8,-13.0,71,30.39,10.0,Calm,Calm,-,N/A,,Clear,0,2014-01-03 08:55:00
3:15 AM,-7.6,-13.0,77,30.38,10.0,SE,4.6,-,N/A,,Clear,140,2014-01-03 09:15:00
3:35 AM,-7.6,-14.8,71,30.37,10.0,SSE,4.6,-,N/A,,Clear,150,2014-01-03 09:35:00
3:55 AM,-9.4,-16.6,71,30.37,10.0,South,6.9,-,N/A,,Scattered Clouds,180,2014-01-03 09:55:00
4:15 AM,-7.6,-14.8,71,30.36,10.0,South,5.8,-,N/A,,Overcast,170,2014-01-03 10:15:00
4:35 AM,-5.8,-13.0,71,30.35,10.0,SE,6.9,-,N/A,,Overcast,140,2014-01-03 10:35:00
4:55 AM,-4.0,-11.2,71,30.34,10.0,SSE,5.8,-,N/A,,Overcast,150,2014-01-03 10:55:00
5:15 AM,-4.0,-11.2,71,30.32,10.0,SSE,9.2,-,N/A,,Overcast,150,2014-01-03 11:15:00
5:35 AM,-2.2,-9.4,71,30.32,10.0,SSE,6.9,-,N/A,,Overcast,150,2014-01-03 11:35:00
5:55 AM,-2.2,-7.6,78,30.30,10.0,SSE,9.2,-,N/A,,Overcast,160,2014-01-03 11:55:00
6:15 AM,-2.2,-7.6,78,30.29,10.0,SSE,11.5,-,N/A,,Overcast,160,2014-01-03 12:15:00
6:35 AM,-2.2,-9.4,71,30.29,10.0,South,11.5,-,N/A,,Scattered Clouds,180,2014-01-03 12:35:00
6:55 AM,-2.2,-9.4,71,30.28,10.0,SSE,10.4,-,N/A,,Mostly Cloudy,160,2014-01-03 12:55:00
7:15 AM,-2.2,-9.4,71,30.28,10.0,South,8.1,-,N/A,,Mostly Cloudy,180,2014-01-03 13:15:00
7:35 AM,-0.4,-7.6,72,30.26,10.0,South,10.4,-,N/A,,Overcast,170,2014-01-03 13:35:00
7:55 AM,1.4,-5.8,72,30.25,10.0,South,12.7,-,N/A,,Overcast,170,2014-01-03 13:55:00
8:15 AM,3.2,-5.8,66,30.22,10.0,South,13.8,20.7,N/A,,Overcast,170,2014-01-03 14:15:00
8:35 AM,3.2,-5.8,66,30.21,10.0,South,16.1,21.9,N/A,,Overcast,170,2014-01-03 14:35:00
8:55 AM,5.0,-4.0,66,30.21,10.0,South,16.1,-,N/A,,Overcast,180,2014-01-03 14:55:00
9:15 AM,6.8,-4.0,61,30.20,10.0,South,17.3,24.2,N/A,,Overcast,180,2014-01-03 15:15:00
9:35 AM,8.6,-4.0,57,30.17,10.0,South,15.0,20.7,N/A,,Overcast,170,2014-01-03 15:35:00
9:55 AM,8.6,-2.2,62,30.17,10.0,South,13.8,21.9,N/A,,Overcast,180,2014-01-03 15:55:00
10:15 AM,10.4,-0.4,62,30.16,10.0,South,18.4,-,N/A,,Overcast,180,2014-01-03 16:15:00
10:35 AM,12.2,-0.4,57,30.15,10.0,South,13.8,21.9,N/A,,Mostly Cloudy,180,2014-01-03 16:35:00
10:55 AM,14.0,1.4,57,30.13,10.0,South,19.6,-,N/A,,Overcast,180,2014-01-03 16:55:00
11:15 AM,14.0,1.4,57,30.10,10.0,South,17.3,25.3,N/A,,Mostly Cloudy,170,2014-01-03 17:15:00
11:35 AM,15.8,3.2,58,30.07,10.0,South,21.9,-,N/A,,Partly Cloudy,180,2014-01-03 17:35:00
11:55 AM,17.6,5.0,58,30.05,10.0,South,18.4,-,N/A,,Clear,180,2014-01-03 17:55:00
12:15 PM,19.4,6.8,58,30.04,10.0,South,16.1,29.9,N/A,Snow,Light Snow,180,2014-01-03 18:15:00
12:35 PM,19.4,8.6,63,30.00,10.0,South,20.7,27.6,N/A,,Clear,180,2014-01-03 18:35:00
12:55 PM,21.2,10.4,63,29.98,10.0,South,17.3,28.8,N/A,,Clear,180,2014-01-03 18:55:00
1:15 PM,23.0,10.4,59,29.96,10.0,South,19.6,29.9,N/A,,Clear,180,2014-01-03 19:15:00
1:35 PM,23.0,12.2,63,29.93,10.0,South,26.5,34.5,N/A,Snow,Light Snow,180,2014-01-03 19:35:00
1:55 PM,24.8,12.2,59,29.90,9.0,South,24.2,31.1,N/A,Snow,Light Snow,180,2014-01-03 19:55:00
2:15 PM,24.8,12.2,59,29.89,10.0,South,20.7,28.8,N/A,,Clear,180,2014-01-03 20:15:00
2:35 PM,24.8,14.0,64,29.86,10.0,South,23.0,-,N/A,,Clear,170,2014-01-03 20:35:00
2:55 PM,26.6,14.0,59,29.84,10.0,South,20.7,-,N/A,,Clear,180,2014-01-03 20:55:00
3:15 PM,28.4,15.8,59,29.82,10.0,South,23.0,34.5,N/A,,Clear,180,2014-01-03 21:15:00
3:35 PM,28.4,15.8,59,29.80,10.0,South,18.4,32.2,N/A,,Clear,180,2014-01-03 21:35:00
3:55 PM,28.4,17.6,64,29.78,10.0,South,21.9,34.5,N/A,,Clear,180,2014-01-03 21:55:00
4:15 PM,28.4,15.8,59,29.78,10.0,South,20.7,29.9,N/A,,Clear,180,2014-01-03 22:15:00
4:35 PM,28.4,17.6,64,29.78,10.0,South,18.4,28.8,N/A,,Clear,180,2014-01-03 22:35:00
4:55 PM,28.4,17.6,64,29.78,10.0,South,19.6,26.5,N/A,,Clear,190,2014-01-03 22:55:00
5:15 PM,28.4,17.6,64,29.77,10.0,South,20.7,29.9,N/A,,Clear,180,2014-01-03 23:15:00
5:35 PM,26.6,17.6,69,29.76,10.0,South,18.4,25.3,N/A,,Clear,180,2014-01-03 23:35:00
5:55 PM,28.4,17.6,64,29.76,10.0,South,17.3,26.5,N/A,,Clear,180,2014-01-03 23:55:00
6:15 PM,28.4,17.6,64,29.75,10.0,South,20.7,28.8,N/A,,Clear,180,2014-01-04 00:15:00
6:35 PM,28.4,17.6,64,29.75,10.0,South,21.9,31.1,N/A,,Clear,180,2014-01-04 00:35:00
6:55 PM,28.4,17.6,64,29.75,10.0,South,19.6,27.6,N/A,,Clear,190,2014-01-04 00:55:00
7:15 PM,28.4,17.6,64,29.74,10.0,South,23.0,-,N/A,,Clear,190,2014-01-04 01:15:00
7:35 PM,28.4,17.6,64,29.74,10.0,South,19.6,27.6,N/A,,Clear,190,2014-01-04 01:35:00
7:55 PM,28.4,17.6,64,29.73,10.0,South,19.6,28.8,N/A,,Clear,190,2014-01-04 01:55:00
8:15 PM,28.4,17.6,64,29.73,10.0,South,18.4,27.6,N/A,,Clear,190,2014-01-04 02:15:00
8:35 PM,28.4,19.4,69,29.72,10.0,South,19.6,27.6,N/A,,Clear,190,2014-01-04 02:35:00
8:55 PM,28.4,19.4,69,29.70,10.0,South,18.4,27.6,N/A,,Clear,190,2014-01-04 02:55:00
9:15 PM,28.4,19.4,69,29.69,10.0,South,20.7,31.1,N/A,,Clear,190,2014-01-04 03:15:00
9:35 PM,30.2,19.4,64,29.68,10.0,South,23.0,34.5,N/A,,Clear,190,2014-01-04 03:35:00
9:55 PM,30.2,19.4,64,29.67,10.0,SSW,23.0,33.4,N/A,,Clear,200,2014-01-04 03:55:00
10:15 PM,30.2,19.4,64,29.67,10.0,SSW,20.7,35.7,N/A,,Clear,200,2014-01-04 04:15:00
10:35 PM,30.2,19.4,64,29.66,10.0,SSW,20.7,34.5,N/A,,Clear,200,2014-01-04 04:35:00
10:55 PM,30.2,19.4,64,29.65,10.0,SSW,21.9,31.1,N/A,,Clear,200,2014-01-04 04:55:00
11:15 PM,30.2,19.4,64,29.66,10.0,SSW,20.7,28.8,N/A,,Clear,200,2014-01-04 05:15:00
11:35 PM,32.0,21.2,64,29.67,-9999.0,SSW,19.6,27.6,N/A,,Clear,200,2014-01-04 05:35:00
11:55 PM,32.0,19.4,60,29.66,10.0,SSW,20.7,33.4,N/A,,Clear,200,2014-01-04 05:55:00